This is the latest recevied weather packets stored in our database for station/object OE9SAU-10. If no packets are shown the sender has not sent any weather packets the latest 10 day(s).
| Time | Temp. | Humidity | Pressure | Rain* | Wind** | Luminosity | Snow |
|---|---|---|---|---|---|---|---|
| 1777110449 | 19.44° C | 31% | 1020.8 hPa | - | - | - | - |
| 1777109548 | 19.44° C | 33% | 1020.8 hPa | - | - | - | - |
| 1777108648 | 18.89° C | 32% | 1020.9 hPa | - | - | - | - |
| 1777107748 | 18.33° C | 33% | 1021 hPa | - | - | - | - |
| 1777106848 | 17.78° C | 33% | 1021 hPa | - | - | - | - |
| 1777105948 | 17.22° C | 33% | 1021.1 hPa | - | - | - | - |
| 1777105048 | 16.67° C | 34% | 1021.1 hPa | - | - | - | - |
| 1777104148 | 16.11° C | 36% | 1021.2 hPa | - | - | - | - |
| 1777103248 | 15.56° C | 38% | 1021.1 hPa | - | - | - | - |
| 1777102348 | 15° C | 38% | 1021.3 hPa | - | - | - | - |
| 1777101448 | 14.44° C | 38% | 1021.4 hPa | - | - | - | - |
| 1777100548 | 13.33° C | 39% | 1021.6 hPa | - | - | - | - |
| 1777099648 | 12.78° C | 42% | 1021.5 hPa | - | - | - | - |
| 1777098748 | 12.22° C | 39% | 1021.6 hPa | - | - | - | - |
| 1777097848 | 12.22° C | 37% | 1021.6 hPa | - | - | - | - |
| 1777096948 | 11.67° C | 36% | 1021.7 hPa | - | - | - | - |
| 1777096048 | 11.67° C | 35% | 1021.7 hPa | - | - | - | - |
| 1777095148 | 11.67° C | 36% | 1021.6 hPa | - | - | - | - |
| 1777094248 | 12.22° C | 35% | 1021.4 hPa | - | - | - | - |
| 1777093347 | 12.22° C | 35% | 1021.3 hPa | - | - | - | - |
| 1777092447 | 12.22° C | 34% | 1021.4 hPa | - | - | - | - |
| 1777091547 | 12.22° C | 34% | 1021.4 hPa | - | - | - | - |
| 1777090647 | 12.22° C | 35% | 1021.3 hPa | - | - | - | - |
| 1777089747 | 12.78° C | 34% | 1021.2 hPa | - | - | - | - |
| 1777088847 | 12.78° C | 34% | 1021.3 hPa | - | - | - | - |
* Rain since midnight (hover to see other rain measurements)
** Current wind speed in m/s (hover to see current wind gust speed)